sensor_id;sensor_type;location;lat;lon;timestamp;temperature;humidity
21298;DHT22;10808;48.010;11.326;2023-07-20T00:01:25;21.10;92.60
21298;DHT22;10808;48.010;11.326;2023-07-20T00:03:51;21.10;92.40
21298;DHT22;10808;48.010;11.326;2023-07-20T00:06:24;21.00;92.40
21298;DHT22;10808;48.010;11.326;2023-07-20T00:08:54;21.00;92.50
21298;DHT22;10808;48.010;11.326;2023-07-20T00:11:20;21.00;92.40
21298;DHT22;10808;48.010;11.326;2023-07-20T00:13:46;20.90;92.40
21298;DHT22;10808;48.010;11.326;2023-07-20T00:16:12;20.90;92.40
21298;DHT22;10808;48.010;11.326;2023-07-20T00:18:38;20.80;92.30
21298;DHT22;10808;48.010;11.326;2023-07-20T00:21:04;20.90;92.70
21298;DHT22;10808;48.010;11.326;2023-07-20T00:23:30;20.80;92.20
21298;DHT22;10808;48.010;11.326;2023-07-20T00:25:56;20.80;92.40
21298;DHT22;10808;48.010;11.326;2023-07-20T00:28:23;20.80;92.40
21298;DHT22;10808;48.010;11.326;2023-07-20T00:30:49;20.80;92.60
21298;DHT22;10808;48.010;11.326;2023-07-20T00:33:17;20.80;92.60
21298;DHT22;10808;48.010;11.326;2023-07-20T00:35:43;20.80;92.70
21298;DHT22;10808;48.010;11.326;2023-07-20T00:38:09;20.80;92.70
21298;DHT22;10808;48.010;11.326;2023-07-20T00:40:40;20.80;92.90
21298;DHT22;10808;48.010;11.326;2023-07-20T00:43:06;20.80;92.90
21298;DHT22;10808;48.010;11.326;2023-07-20T00:45:33;20.80;92.90
21298;DHT22;10808;48.010;11.326;2023-07-20T00:48:01;20.80;92.90
21298;DHT22;10808;48.010;11.326;2023-07-20T00:50:28;20.80;92.80
21298;DHT22;10808;48.010;11.326;2023-07-20T00:52:55;20.80;93.20
21298;DHT22;10808;48.010;11.326;2023-07-20T00:55:23;20.80;92.90
21298;DHT22;10808;48.010;11.326;2023-07-20T00:57:50;20.80;92.90
21298;DHT22;10808;48.010;11.326;2023-07-20T01:00:17;20.80;92.90
21298;DHT22;10808;48.010;11.326;2023-07-20T01:02:44;20.80;92.60
21298;DHT22;10808;48.010;11.326;2023-07-20T01:05:10;20.80;92.70
21298;DHT22;10808;48.010;11.326;2023-07-20T01:07:58;20.80;92.50
21298;DHT22;10808;48.010;11.326;2023-07-20T01:10:46;20.80;92.40
21298;DHT22;10808;48.010;11.326;2023-07-20T01:13:18;20.80;92.50
21298;DHT22;10808;48.010;11.326;2023-07-20T01:15:56;20.80;92.80
21298;DHT22;10808;48.010;11.326;2023-07-20T01:18:24;20.80;92.30
21298;DHT22;10808;48.010;11.326;2023-07-20T01:20:50;20.80;92.40
21298;DHT22;10808;48.010;11.326;2023-07-20T01:28:48;20.80;92.60
21298;DHT22;10808;48.010;11.326;2023-07-20T01:31:24;20.80;92.40
21298;DHT22;10808;48.010;11.326;2023-07-20T01:33:53;20.80;92.40
21298;DHT22;10808;48.010;11.326;2023-07-20T01:36:22;20.80;92.30
21298;DHT22;10808;48.010;11.326;2023-07-20T01:38:49;20.80;92.40
21298;DHT22;10808;48.010;11.326;2023-07-20T01:41:15;20.80;92.70
21298;DHT22;10808;48.010;11.326;2023-07-20T01:43:42;20.80;92.60
21298;DHT22;10808;48.010;11.326;2023-07-20T01:46:08;20.90;92.60
21298;DHT22;10808;48.010;11.326;2023-07-20T01:48:34;20.80;92.40
21298;DHT22;10808;48.010;11.326;2023-07-20T01:51:00;20.80;92.60
21298;DHT22;10808;48.010;11.326;2023-07-20T01:53:26;20.80;92.90
21298;DHT22;10808;48.010;11.326;2023-07-20T01:55:53;20.80;92.90
21298;DHT22;10808;48.010;11.326;2023-07-20T01:58:20;20.70;92.20
21298;DHT22;10808;48.010;11.326;2023-07-20T02:00:46;20.70;92.50
21298;DHT22;10808;48.010;11.326;2023-07-20T02:03:12;20.70;92.30
21298;DHT22;10808;48.010;11.326;2023-07-20T02:05:39;20.70;92.60
21298;DHT22;10808;48.010;11.326;2023-07-20T02:08:05;20.80;92.40
21298;DHT22;10808;48.010;11.326;2023-07-20T02:10:31;20.70;92.50
21298;DHT22;10808;48.010;11.326;2023-07-20T02:12:57;20.80;92.30
21298;DHT22;10808;48.010;11.326;2023-07-20T02:15:23;20.70;92.40
21298;DHT22;10808;48.010;11.326;2023-07-20T02:17:50;20.70;92.40
21298;DHT22;10808;48.010;11.326;2023-07-20T02:20:16;20.70;92.40
21298;DHT22;10808;48.010;11.326;2023-07-20T02:22:42;20.70;92.50
21298;DHT22;10808;48.010;11.326;2023-07-20T02:25:08;20.70;92.50
21298;DHT22;10808;48.010;11.326;2023-07-20T02:27:35;20.70;92.50
21298;DHT22;10808;48.010;11.326;2023-07-20T02:30:01;20.70;92.50
21298;DHT22;10808;48.010;11.326;2023-07-20T02:32:28;20.70;92.30
21298;DHT22;10808;48.010;11.326;2023-07-20T02:34:54;20.70;92.40
21298;DHT22;10808;48.010;11.326;2023-07-20T02:37:20;20.60;92.50
21298;DHT22;10808;48.010;11.326;2023-07-20T02:39:46;20.70;92.80
21298;DHT22;10808;48.010;11.326;2023-07-20T02:42:12;20.70;92.80
21298;DHT22;10808;48.010;11.326;2023-07-20T02:44:39;20.60;92.80
21298;DHT22;10808;48.010;11.326;2023-07-20T02:47:05;20.60;92.80
21298;DHT22;10808;48.010;11.326;2023-07-20T02:49:31;20.70;93.10
21298;DHT22;10808;48.010;11.326;2023-07-20T02:51:57;20.60;93.30
21298;DHT22;10808;48.010;11.326;2023-07-20T02:54:23;20.60;93.40
21298;DHT22;10808;48.010;11.326;2023-07-20T02:56:49;20.50;93.50
21298;DHT22;10808;48.010;11.326;2023-07-20T02:59:15;20.40;92.70
21298;DHT22;10808;48.010;11.326;2023-07-20T03:01:41;20.30;92.60
21298;DHT22;10808;48.010;11.326;2023-07-20T03:04:10;20.20;92.60
21298;DHT22;10808;48.010;11.326;2023-07-20T03:06:36;20.00;92.80
21298;DHT22;10808;48.010;11.326;2023-07-20T03:09:03;19.90;93.00
21298;DHT22;10808;48.010;11.326;2023-07-20T03:11:32;19.90;93.00
21298;DHT22;10808;48.010;11.326;2023-07-20T03:13:59;19.80;93.30
21298;DHT22;10808;48.010;11.326;2023-07-20T03:16:25;19.70;93.60
21298;DHT22;10808;48.010;11.326;2023-07-20T03:18:52;19.70;93.80
21298;DHT22;10808;48.010;11.326;2023-07-20T03:21:18;19.60;94.30
21298;DHT22;10808;48.010;11.326;2023-07-20T03:23:44;19.50;94.60
21298;DHT22;10808;48.010;11.326;2023-07-20T03:26:11;19.40;95.10
21298;DHT22;10808;48.010;11.326;2023-07-20T03:28:37;19.40;95.50
21298;DHT22;10808;48.010;11.326;2023-07-20T03:31:04;19.30;95.80
21298;DHT22;10808;48.010;11.326;2023-07-20T03:33:31;19.20;96.00
21298;DHT22;10808;48.010;11.326;2023-07-20T03:35:58;19.20;96.20
21298;DHT22;10808;48.010;11.326;2023-07-20T03:38:25;19.20;96.90
21298;DHT22;10808;48.010;11.326;2023-07-20T03:40:56;19.10;96.60
21298;DHT22;10808;48.010;11.326;2023-07-20T03:43:23;19.10;97.00
21298;DHT22;10808;48.010;11.326;2023-07-20T03:45:49;19.00;97.00
21298;DHT22;10808;48.010;11.326;2023-07-20T03:48:17;19.00;97.20
21298;DHT22;10808;48.010;11.326;2023-07-20T03:50:47;19.00;97.30
21298;DHT22;10808;48.010;11.326;2023-07-20T03:53:14;19.10;97.30
21298;DHT22;10808;48.010;11.326;2023-07-20T03:55:51;19.10;97.40
21298;DHT22;10808;48.010;11.326;2023-07-20T03:58:18;19.20;97.10
21298;DHT22;10808;48.010;11.326;2023-07-20T04:00:45;19.20;96.80
21298;DHT22;10808;48.010;11.326;2023-07-20T04:03:12;19.20;96.80
21298;DHT22;10808;48.010;11.326;2023-07-20T04:05:38;19.20;96.70
21298;DHT22;10808;48.010;11.326;2023-07-20T04:08:04;19.20;96.70
21298;DHT22;10808;48.010;11.326;2023-07-20T04:10:30;19.30;96.50
21298;DHT22;10808;48.010;11.326;2023-07-20T04:12:56;19.30;96.70
21298;DHT22;10808;48.010;11.326;2023-07-20T04:15:23;19.40;96.60
21298;DHT22;10808;48.010;11.326;2023-07-20T04:17:49;19.30;96.40
21298;DHT22;10808;48.010;11.326;2023-07-20T04:20:15;19.30;96.40
21298;DHT22;10808;48.010;11.326;2023-07-20T04:22:41;19.30;96.40
21298;DHT22;10808;48.010;11.326;2023-07-20T04:25:07;19.30;96.80
21298;DHT22;10808;48.010;11.326;2023-07-20T04:27:33;19.40;97.30
21298;DHT22;10808;48.010;11.326;2023-07-20T04:29:59;19.40;97.20
21298;DHT22;10808;48.010;11.326;2023-07-20T04:32:26;19.40;96.60
21298;DHT22;10808;48.010;11.326;2023-07-20T04:34:52;19.50;96.60
21298;DHT22;10808;48.010;11.326;2023-07-20T04:37:18;19.50;96.40
21298;DHT22;10808;48.010;11.326;2023-07-20T04:39:44;19.50;96.30
21298;DHT22;10808;48.010;11.326;2023-07-20T04:42:10;19.40;96.90
21298;DHT22;10808;48.010;11.326;2023-07-20T04:44:36;19.40;97.60
21298;DHT22;10808;48.010;11.326;2023-07-20T04:47:02;19.30;98.10
21298;DHT22;10808;48.010;11.326;2023-07-20T04:49:28;19.30;98.30
21298;DHT22;10808;48.010;11.326;2023-07-20T04:51:54;19.40;98.40
21298;DHT22;10808;48.010;11.326;2023-07-20T04:54:21;19.40;98.50
21298;DHT22;10808;48.010;11.326;2023-07-20T04:56:47;19.40;98.50
21298;DHT22;10808;48.010;11.326;2023-07-20T04:59:13;19.40;98.90
21298;DHT22;10808;48.010;11.326;2023-07-20T05:01:39;19.40;98.80
21298;DHT22;10808;48.010;11.326;2023-07-20T05:04:05;19.40;98.70
21298;DHT22;10808;48.010;11.326;2023-07-20T05:06:31;19.40;98.80
21298;DHT22;10808;48.010;11.326;2023-07-20T05:08:57;19.50;98.90
21298;DHT22;10808;48.010;11.326;2023-07-20T05:11:23;19.50;98.90
21298;DHT22;10808;48.010;11.326;2023-07-20T05:13:49;19.60;98.90
21298;DHT22;10808;48.010;11.326;2023-07-20T05:16:15;19.50;99.10
21298;DHT22;10808;48.010;11.326;2023-07-20T05:18:41;19.50;99.60
21298;DHT22;10808;48.010;11.326;2023-07-20T05:21:07;19.50;99.70
21298;DHT22;10808;48.010;11.326;2023-07-20T05:23:34;19.40;99.70
21298;DHT22;10808;48.010;11.326;2023-07-20T05:26:00;19.30;99.90
21298;DHT22;10808;48.010;11.326;2023-07-20T05:28:26;19.30;99.90
21298;DHT22;10808;48.010;11.326;2023-07-20T05:30:53;19.30;99.90
21298;DHT22;10808;48.010;11.326;2023-07-20T05:33:22;19.30;99.90
21298;DHT22;10808;48.010;11.326;2023-07-20T05:35:48;19.40;99.90
21298;DHT22;10808;48.010;11.326;2023-07-20T05:38:14;19.40;99.90
21298;DHT22;10808;48.010;11.326;2023-07-20T05:40:41;19.40;99.90
21298;DHT22;10808;48.010;11.326;2023-07-20T05:43:08;19.40;99.90
21298;DHT22;10808;48.010;11.326;2023-07-20T05:45:34;19.50;99.90
21298;DHT22;10808;48.010;11.326;2023-07-20T05:48:00;19.40;99.90
21298;DHT22;10808;48.010;11.326;2023-07-20T05:50:26;19.50;99.90
21298;DHT22;10808;48.010;11.326;2023-07-20T05:52:53;19.50;99.90
21298;DHT22;10808;48.010;11.326;2023-07-20T05:55:21;19.60;99.90
21298;DHT22;10808;48.010;11.326;2023-07-20T05:57:47;19.60;99.90
21298;DHT22;10808;48.010;11.326;2023-07-20T06:00:14;19.60;99.90
21298;DHT22;10808;48.010;11.326;2023-07-20T06:02:40;19.60;99.90
21298;DHT22;10808;48.010;11.326;2023-07-20T06:05:07;19.60;99.90
21298;DHT22;10808;48.010;11.326;2023-07-20T06:07:37;19.60;99.90
21298;DHT22;10808;48.010;11.326;2023-07-20T06:10:04;19.60;99.90
21298;DHT22;10808;48.010;11.326;2023-07-20T06:12:32;19.50;99.70
21298;DHT22;10808;48.010;11.326;2023-07-20T06:15:12;19.60;99.60
21298;DHT22;10808;48.010;11.326;2023-07-20T06:17:49;19.60;99.10
21298;DHT22;10808;48.010;11.326;2023-07-20T06:20:15;19.50;98.70
21298;DHT22;10808;48.010;11.326;2023-07-20T06:22:41;19.50;97.70
21298;DHT22;10808;48.010;11.326;2023-07-20T06:25:07;19.50;97.10
21298;DHT22;10808;48.010;11.326;2023-07-20T06:27:33;19.50;96.70
21298;DHT22;10808;48.010;11.326;2023-07-20T06:29:59;19.50;96.40
21298;DHT22;10808;48.010;11.326;2023-07-20T06:32:25;19.60;95.90
21298;DHT22;10808;48.010;11.326;2023-07-20T06:34:51;19.60;95.30
21298;DHT22;10808;48.010;11.326;2023-07-20T06:37:17;19.60;95.60
21298;DHT22;10808;48.010;11.326;2023-07-20T06:39:45;19.70;95.20
21298;DHT22;10808;48.010;11.326;2023-07-20T06:42:11;19.80;95.00
21298;DHT22;10808;48.010;11.326;2023-07-20T06:44:38;19.80;94.50
21298;DHT22;10808;48.010;11.326;2023-07-20T06:47:04;19.80;94.40
21298;DHT22;10808;48.010;11.326;2023-07-20T06:49:30;19.80;94.40
21298;DHT22;10808;48.010;11.326;2023-07-20T06:51:56;19.90;94.30
21298;DHT22;10808;48.010;11.326;2023-07-20T06:54:22;19.90;94.10
21298;DHT22;10808;48.010;11.326;2023-07-20T06:56:48;19.90;93.90
21298;DHT22;10808;48.010;11.326;2023-07-20T06:59:14;20.00;94.00
21298;DHT22;10808;48.010;11.326;2023-07-20T07:01:40;20.10;93.60
21298;DHT22;10808;48.010;11.326;2023-07-20T07:04:06;20.20;93.30
21298;DHT22;10808;48.010;11.326;2023-07-20T07:06:32;20.20;93.20
21298;DHT22;10808;48.010;11.326;2023-07-20T07:08:58;20.30;93.30
21298;DHT22;10808;48.010;11.326;2023-07-20T07:11:24;20.40;93.10
21298;DHT22;10808;48.010;11.326;2023-07-20T07:13:50;20.50;93.10
21298;DHT22;10808;48.010;11.326;2023-07-20T07:16:17;20.60;93.00
21298;DHT22;10808;48.010;11.326;2023-07-20T07:18:45;20.80;93.00
21298;DHT22;10808;48.010;11.326;2023-07-20T07:21:12;20.90;92.90
21298;DHT22;10808;48.010;11.326;2023-07-20T07:23:38;21.00;92.50
21298;DHT22;10808;48.010;11.326;2023-07-20T07:26:05;21.10;92.10
21298;DHT22;10808;48.010;11.326;2023-07-20T07:28:31;21.00;92.00
21298;DHT22;10808;48.010;11.326;2023-07-20T07:30:58;21.00;92.30
21298;DHT22;10808;48.010;11.326;2023-07-20T07:33:24;21.00;91.70
21298;DHT22;10808;48.010;11.326;2023-07-20T07:35:51;21.00;91.30
21298;DHT22;10808;48.010;11.326;2023-07-20T07:38:19;21.10;92.00
21298;DHT22;10808;48.010;11.326;2023-07-20T07:40:45;21.20;91.70
21298;DHT22;10808;48.010;11.326;2023-07-20T07:43:11;21.20;92.20
21298;DHT22;10808;48.010;11.326;2023-07-20T07:45:38;21.30;91.20
21298;DHT22;10808;48.010;11.326;2023-07-20T07:48:05;21.30;91.50
21298;DHT22;10808;48.010;11.326;2023-07-20T07:50:32;21.40;91.90
21298;DHT22;10808;48.010;11.326;2023-07-20T07:52:58;21.40;91.60
21298;DHT22;10808;48.010;11.326;2023-07-20T07:55:25;21.40;91.20
21298;DHT22;10808;48.010;11.326;2023-07-20T07:57:54;21.50;90.90
21298;DHT22;10808;48.010;11.326;2023-07-20T08:00:20;21.70;91.40
21298;DHT22;10808;48.010;11.326;2023-07-20T08:02:47;21.70;91.50
21298;DHT22;10808;48.010;11.326;2023-07-20T08:05:14;21.70;92.00
21298;DHT22;10808;48.010;11.326;2023-07-20T08:07:40;21.90;92.20
21298;DHT22;10808;48.010;11.326;2023-07-20T08:10:07;21.80;92.10
21298;DHT22;10808;48.010;11.326;2023-07-20T08:12:33;21.80;92.20
21298;DHT22;10808;48.010;11.326;2023-07-20T08:14:59;21.80;91.60
21298;DHT22;10808;48.010;11.326;2023-07-20T08:17:25;22.00;91.80
21298;DHT22;10808;48.010;11.326;2023-07-20T08:19:51;22.00;91.30
21298;DHT22;10808;48.010;11.326;2023-07-20T08:22:17;22.00;90.70
21298;DHT22;10808;48.010;11.326;2023-07-20T08:24:43;22.10;90.40
21298;DHT22;10808;48.010;11.326;2023-07-20T08:27:10;22.10;89.80
21298;DHT22;10808;48.010;11.326;2023-07-20T08:29:36;22.20;88.40
21298;DHT22;10808;48.010;11.326;2023-07-20T08:32:03;22.20;88.40
21298;DHT22;10808;48.010;11.326;2023-07-20T08:34:30;22.30;87.50
21298;DHT22;10808;48.010;11.326;2023-07-20T08:36:56;22.60;89.70
21298;DHT22;10808;48.010;11.326;2023-07-20T08:39:23;22.80;88.70
21298;DHT22;10808;48.010;11.326;2023-07-20T08:41:50;22.90;88.20
21298;DHT22;10808;48.010;11.326;2023-07-20T08:44:17;22.90;87.20
21298;DHT22;10808;48.010;11.326;2023-07-20T08:46:44;22.90;87.20
21298;DHT22;10808;48.010;11.326;2023-07-20T08:49:11;22.90;87.10
21298;DHT22;10808;48.010;11.326;2023-07-20T08:51:37;22.90;86.40
21298;DHT22;10808;48.010;11.326;2023-07-20T08:54:04;23.00;87.30
21298;DHT22;10808;48.010;11.326;2023-07-20T08:56:31;23.10;87.20
21298;DHT22;10808;48.010;11.326;2023-07-20T08:58:59;23.40;87.80
21298;DHT22;10808;48.010;11.326;2023-07-20T09:01:28;23.80;86.30
21298;DHT22;10808;48.010;11.326;2023-07-20T09:03:55;23.70;84.80
21298;DHT22;10808;48.010;11.326;2023-07-20T09:06:21;23.80;85.60
21298;DHT22;10808;48.010;11.326;2023-07-20T09:08:47;24.10;85.60
21298;DHT22;10808;48.010;11.326;2023-07-20T09:11:14;24.40;86.00
21298;DHT22;10808;48.010;11.326;2023-07-20T09:13:41;24.50;84.50
21298;DHT22;10808;48.010;11.326;2023-07-20T09:16:07;24.40;84.30
21298;DHT22;10808;48.010;11.326;2023-07-20T09:18:33;24.70;83.90
21298;DHT22;10808;48.010;11.326;2023-07-20T09:21:05;24.90;83.60
21298;DHT22;10808;48.010;11.326;2023-07-20T09:23:37;24.80;82.30
21298;DHT22;10808;48.010;11.326;2023-07-20T09:26:12;24.80;82.10
21298;DHT22;10808;48.010;11.326;2023-07-20T09:28:44;24.80;82.70
21298;DHT22;10808;48.010;11.326;2023-07-20T09:31:17;24.80;83.40
21298;DHT22;10808;48.010;11.326;2023-07-20T09:33:43;25.00;83.90
21298;DHT22;10808;48.010;11.326;2023-07-20T09:36:09;25.50;81.40
21298;DHT22;10808;48.010;11.326;2023-07-20T09:38:38;25.80;81.50
21298;DHT22;10808;48.010;11.326;2023-07-20T09:41:06;25.80;79.80
21298;DHT22;10808;48.010;11.326;2023-07-20T09:43:36;25.60;80.10
21298;DHT22;10808;48.010;11.326;2023-07-20T09:46:02;25.50;79.60
21298;DHT22;10808;48.010;11.326;2023-07-20T09:48:29;25.40;80.50
21298;DHT22;10808;48.010;11.326;2023-07-20T09:50:57;25.30;79.10
21298;DHT22;10808;48.010;11.326;2023-07-20T09:53:24;25.30;78.00
21298;DHT22;10808;48.010;11.326;2023-07-20T09:55:52;25.30;77.80
21298;DHT22;10808;48.010;11.326;2023-07-20T09:58:19;25.20;78.00
21298;DHT22;10808;48.010;11.326;2023-07-20T10:00:46;25.40;76.50
21298;DHT22;10808;48.010;11.326;2023-07-20T10:03:25;25.50;77.00
21298;DHT22;10808;48.010;11.326;2023-07-20T10:05:57;25.50;76.00
21298;DHT22;10808;48.010;11.326;2023-07-20T10:08:25;25.40;77.80
21298;DHT22;10808;48.010;11.326;2023-07-20T10:10:51;25.30;76.80
21298;DHT22;10808;48.010;11.326;2023-07-20T10:13:18;25.10;77.00
21298;DHT22;10808;48.010;11.326;2023-07-20T10:15:50;24.80;77.60
21298;DHT22;10808;48.010;11.326;2023-07-20T10:18:27;24.80;78.40
21298;DHT22;10808;48.010;11.326;2023-07-20T10:20:55;24.90;78.60
21298;DHT22;10808;48.010;11.326;2023-07-20T10:23:23;25.30;78.60
21298;DHT22;10808;48.010;11.326;2023-07-20T10:25:52;25.70;78.20
21298;DHT22;10808;48.010;11.326;2023-07-20T10:28:19;25.90;75.50
21298;DHT22;10808;48.010;11.326;2023-07-20T10:30:46;26.00;74.80
21298;DHT22;10808;48.010;11.326;2023-07-20T10:33:13;26.30;75.60
21298;DHT22;10808;48.010;11.326;2023-07-20T10:36:05;26.60;74.50
21298;DHT22;10808;48.010;11.326;2023-07-20T10:38:53;26.70;74.60
21298;DHT22;10808;48.010;11.326;2023-07-20T10:41:28;26.70;73.90
21298;DHT22;10808;48.010;11.326;2023-07-20T10:44:02;27.00;74.80
21298;DHT22;10808;48.010;11.326;2023-07-20T10:46:42;27.60;73.30
21298;DHT22;10808;48.010;11.326;2023-07-20T10:49:10;28.00;70.70
21298;DHT22;10808;48.010;11.326;2023-07-20T10:51:41;28.00;70.10
21298;DHT22;10808;48.010;11.326;2023-07-20T10:54:11;27.50;70.40
21298;DHT22;10808;48.010;11.326;2023-07-20T10:57:21;27.50;71.70
21298;DHT22;10808;48.010;11.326;2023-07-20T10:59:47;27.90;71.10
21298;DHT22;10808;48.010;11.326;2023-07-20T11:02:13;28.10;70.00
21298;DHT22;10808;48.010;11.326;2023-07-20T11:04:44;28.10;70.00
21298;DHT22;10808;48.010;11.326;2023-07-20T11:07:16;28.40;69.50
21298;DHT22;10808;48.010;11.326;2023-07-20T11:09:42;28.10;69.70
21298;DHT22;10808;48.010;11.326;2023-07-20T11:12:10;27.80;69.80
21298;DHT22;10808;48.010;11.326;2023-07-20T11:14:44;27.70;71.40
21298;DHT22;10808;48.010;11.326;2023-07-20T11:17:18;27.70;69.90
21298;DHT22;10808;48.010;11.326;2023-07-20T11:20:12;27.70;70.60
21298;DHT22;10808;48.010;11.326;2023-07-20T11:22:39;27.60;70.60
21298;DHT22;10808;48.010;11.326;2023-07-20T11:25:10;27.60;70.80
21298;DHT22;10808;48.010;11.326;2023-07-20T11:27:45;27.50;71.80
21298;DHT22;10808;48.010;11.326;2023-07-20T11:30:17;27.60;72.20
21298;DHT22;10808;48.010;11.326;2023-07-20T11:32:47;27.60;71.60
21298;DHT22;10808;48.010;11.326;2023-07-20T11:35:13;27.60;70.50
21298;DHT22;10808;48.010;11.326;2023-07-20T11:37:40;27.60;70.80
21298;DHT22;10808;48.010;11.326;2023-07-20T11:40:09;28.00;71.10
21298;DHT22;10808;48.010;11.326;2023-07-20T11:42:35;27.90;70.60
21298;DHT22;10808;48.010;11.326;2023-07-20T11:45:03;27.90;70.00
21298;DHT22;10808;48.010;11.326;2023-07-20T11:47:30;27.90;70.20
21298;DHT22;10808;48.010;11.326;2023-07-20T11:50:03;28.00;70.30
21298;DHT22;10808;48.010;11.326;2023-07-20T11:52:30;28.10;70.70
21298;DHT22;10808;48.010;11.326;2023-07-20T11:54:57;28.30;70.30
21298;DHT22;10808;48.010;11.326;2023-07-20T11:57:24;28.20;69.10
21298;DHT22;10808;48.010;11.326;2023-07-20T11:59:54;28.20;69.10
21298;DHT22;10808;48.010;11.326;2023-07-20T12:02:23;28.30;69.60
21298;DHT22;10808;48.010;11.326;2023-07-20T12:04:51;28.30;70.10
21298;DHT22;10808;48.010;11.326;2023-07-20T12:07:21;28.50;68.90
21298;DHT22;10808;48.010;11.326;2023-07-20T12:10:07;28.60;68.50
21298;DHT22;10808;48.010;11.326;2023-07-20T12:12:34;28.70;67.90
21298;DHT22;10808;48.010;11.326;2023-07-20T12:17:52;28.60;68.10
21298;DHT22;10808;48.010;11.326;2023-07-20T12:20:37;29.00;68.80
21298;DHT22;10808;48.010;11.326;2023-07-20T12:23:08;29.20;67.00
21298;DHT22;10808;48.010;11.326;2023-07-20T12:25:45;28.70;66.50
21298;DHT22;10808;48.010;11.326;2023-07-20T12:28:13;28.40;67.60
21298;DHT22;10808;48.010;11.326;2023-07-20T12:30:41;28.40;68.40
21298;DHT22;10808;48.010;11.326;2023-07-20T12:33:07;28.50;68.20
21298;DHT22;10808;48.010;11.326;2023-07-20T12:35:34;28.70;68.10
21298;DHT22;10808;48.010;11.326;2023-07-20T12:38:00;28.60;67.50
21298;DHT22;10808;48.010;11.326;2023-07-20T12:40:27;28.40;68.00
21298;DHT22;10808;48.010;11.326;2023-07-20T12:42:53;28.40;69.10
21298;DHT22;10808;48.010;11.326;2023-07-20T12:45:19;28.80;69.40
21298;DHT22;10808;48.010;11.326;2023-07-20T12:47:45;28.80;67.90
21298;DHT22;10808;48.010;11.326;2023-07-20T12:50:11;28.60;67.60
21298;DHT22;10808;48.010;11.326;2023-07-20T12:52:38;28.60;68.50
21298;DHT22;10808;48.010;11.326;2023-07-20T12:55:06;28.50;68.10
21298;DHT22;10808;48.010;11.326;2023-07-20T12:57:34;28.10;68.60
21298;DHT22;10808;48.010;11.326;2023-07-20T13:00:02;27.80;69.60
21298;DHT22;10808;48.010;11.326;2023-07-20T13:02:30;27.70;69.70
21298;DHT22;10808;48.010;11.326;2023-07-20T13:04:57;28.00;71.10
21298;DHT22;10808;48.010;11.326;2023-07-20T13:07:36;28.10;69.50
21298;DHT22;10808;48.010;11.326;2023-07-20T13:10:04;28.30;71.50
21298;DHT22;10808;48.010;11.326;2023-07-20T13:12:31;28.30;68.70
21298;DHT22;10808;48.010;11.326;2023-07-20T13:14:58;28.60;69.60
21298;DHT22;10808;48.010;11.326;2023-07-20T13:17:28;28.70;68.70
21298;DHT22;10808;48.010;11.326;2023-07-20T13:19:55;28.80;68.60
21298;DHT22;10808;48.010;11.326;2023-07-20T13:22:21;28.70;67.70
21298;DHT22;10808;48.010;11.326;2023-07-20T13:24:47;29.00;68.00
21298;DHT22;10808;48.010;11.326;2023-07-20T13:27:16;29.20;67.20
21298;DHT22;10808;48.010;11.326;2023-07-20T13:29:43;29.20;68.60
21298;DHT22;10808;48.010;11.326;2023-07-20T13:32:10;29.30;66.50
21298;DHT22;10808;48.010;11.326;2023-07-20T13:34:36;29.10;65.60
21298;DHT22;10808;48.010;11.326;2023-07-20T13:37:02;29.00;66.50
21298;DHT22;10808;48.010;11.326;2023-07-20T13:39:29;29.10;67.20
21298;DHT22;10808;48.010;11.326;2023-07-20T13:41:55;29.30;67.00
21298;DHT22;10808;48.010;11.326;2023-07-20T13:44:21;29.40;66.10
21298;DHT22;10808;48.010;11.326;2023-07-20T13:46:48;29.30;66.80
21298;DHT22;10808;48.010;11.326;2023-07-20T13:49:15;29.30;66.00
21298;DHT22;10808;48.010;11.326;2023-07-20T13:51:42;29.50;66.20
21298;DHT22;10808;48.010;11.326;2023-07-20T13:54:08;29.30;65.60
21298;DHT22;10808;48.010;11.326;2023-07-20T13:56:35;29.40;67.50
21298;DHT22;10808;48.010;11.326;2023-07-20T13:59:01;29.60;65.30
21298;DHT22;10808;48.010;11.326;2023-07-20T14:01:27;29.60;65.30
21298;DHT22;10808;48.010;11.326;2023-07-20T14:03:55;29.50;64.60
21298;DHT22;10808;48.010;11.326;2023-07-20T14:06:21;29.50;65.10
21298;DHT22;10808;48.010;11.326;2023-07-20T14:08:47;29.40;64.50
21298;DHT22;10808;48.010;11.326;2023-07-20T14:11:14;29.40;65.50
21298;DHT22;10808;48.010;11.326;2023-07-20T14:13:41;29.20;64.10
21298;DHT22;10808;48.010;11.326;2023-07-20T14:16:07;29.00;64.80
21298;DHT22;10808;48.010;11.326;2023-07-20T14:18:34;28.90;64.80
21298;DHT22;10808;48.010;11.326;2023-07-20T14:21:00;28.90;64.70
21298;DHT22;10808;48.010;11.326;2023-07-20T14:23:29;29.00;65.30
21298;DHT22;10808;48.010;11.326;2023-07-20T14:25:55;29.20;65.80
21298;DHT22;10808;48.010;11.326;2023-07-20T14:28:21;29.20;65.90
21298;DHT22;10808;48.010;11.326;2023-07-20T14:30:47;29.20;64.90
21298;DHT22;10808;48.010;11.326;2023-07-20T14:33:13;29.50;65.70
21298;DHT22;10808;48.010;11.326;2023-07-20T14:35:39;29.50;64.30
21298;DHT22;10808;48.010;11.326;2023-07-20T14:38:05;29.50;65.20
21298;DHT22;10808;48.010;11.326;2023-07-20T14:40:31;29.70;64.50
21298;DHT22;10808;48.010;11.326;2023-07-20T14:42:57;30.00;65.20
21298;DHT22;10808;48.010;11.326;2023-07-20T14:45:23;30.40;65.90
21298;DHT22;10808;48.010;11.326;2023-07-20T14:47:49;30.40;62.50
21298;DHT22;10808;48.010;11.326;2023-07-20T14:50:20;30.60;63.70
21298;DHT22;10808;48.010;11.326;2023-07-20T14:52:47;30.60;63.60
21298;DHT22;10808;48.010;11.326;2023-07-20T14:55:13;30.60;62.10
21298;DHT22;10808;48.010;11.326;2023-07-20T14:57:39;30.50;62.70
21298;DHT22;10808;48.010;11.326;2023-07-20T15:00:06;30.50;63.50
21298;DHT22;10808;48.010;11.326;2023-07-20T15:02:37;30.60;61.90
21298;DHT22;10808;48.010;11.326;2023-07-20T15:05:06;30.10;62.40
21298;DHT22;10808;48.010;11.326;2023-07-20T15:07:32;30.30;63.20
21298;DHT22;10808;48.010;11.326;2023-07-20T15:09:59;30.40;62.10
21298;DHT22;10808;48.010;11.326;2023-07-20T15:12:25;30.70;63.10
21298;DHT22;10808;48.010;11.326;2023-07-20T15:15:07;30.90;61.80
21298;DHT22;10808;48.010;11.326;2023-07-20T15:17:33;30.70;60.90
21298;DHT22;10808;48.010;11.326;2023-07-20T15:20:01;30.50;60.70
21298;DHT22;10808;48.010;11.326;2023-07-20T15:22:31;30.50;62.70
21298;DHT22;10808;48.010;11.326;2023-07-20T15:24:57;30.50;62.20
21298;DHT22;10808;48.010;11.326;2023-07-20T15:27:23;30.50;61.20